sensor_id;sensor_type;location;lat;lon;timestamp;pressure;altitude;pressure_sealevel;temperature;humidity
63731;BME280;49747;51.334;6.830;2023-03-03T00:01:46;101754.44;;;8.46;63.60
63731;BME280;49747;51.334;6.830;2023-03-03T00:04:12;101748.09;;;8.50;63.34
63731;BME280;49747;51.334;6.830;2023-03-03T00:06:39;101754.78;;;8.57;62.86
63731;BME280;49747;51.334;6.830;2023-03-03T00:09:05;101763.66;;;8.56;63.30
63731;BME280;49747;51.334;6.830;2023-03-03T00:11:31;101764.25;;;8.62;62.66
63731;BME280;49747;51.334;6.830;2023-03-03T00:13:58;101754.66;;;8.60;63.34
63731;BME280;49747;51.334;6.830;2023-03-03T00:16:30;101761.59;;;8.62;62.52
63731;BME280;49747;51.334;6.830;2023-03-03T00:18:59;101761.66;;;8.61;62.53
63731;BME280;49747;51.334;6.830;2023-03-03T00:21:49;101759.81;;;8.63;61.99
63731;BME280;49747;51.334;6.830;2023-03-03T00:24:24;101756.88;;;8.50;61.74
63731;BME280;49747;51.334;6.830;2023-03-03T00:27:00;101760.03;;;8.58;61.91
63731;BME280;49747;51.334;6.830;2023-03-03T00:29:33;101774.75;;;8.64;61.78
63731;BME280;49747;51.334;6.830;2023-03-03T00:32:25;101779.56;;;8.56;62.03
63731;BME280;49747;51.334;6.830;2023-03-03T00:34:54;101782.78;;;8.44;61.93
63731;BME280;49747;51.334;6.830;2023-03-03T00:37:30;101774.00;;;8.43;62.23
63731;BME280;49747;51.334;6.830;2023-03-03T00:40:25;101775.16;;;8.36;62.30
63731;BME280;49747;51.334;6.830;2023-03-03T00:42:58;101782.91;;;8.41;61.97
63731;BME280;49747;51.334;6.830;2023-03-03T00:47:58;101773.28;;;8.39;62.61
63731;BME280;49747;51.334;6.830;2023-03-03T00:50:32;101779.34;;;8.42;62.18
63731;BME280;49747;51.334;6.830;2023-03-03T00:53:20;101777.75;;;8.37;62.53
63731;BME280;49747;51.334;6.830;2023-03-03T00:55:48;101780.34;;;8.39;62.34
63731;BME280;49747;51.334;6.830;2023-03-03T00:58:16;101792.38;;;8.46;62.61
63731;BME280;49747;51.334;6.830;2023-03-03T01:00:46;101787.00;;;8.48;62.24
63731;BME280;49747;51.334;6.830;2023-03-03T01:03:19;101789.16;;;8.58;62.31
63731;BME280;49747;51.334;6.830;2023-03-03T01:05:47;101789.50;;;8.70;62.55
63731;BME280;49747;51.334;6.830;2023-03-03T01:08:14;101780.06;;;8.64;62.38
63731;BME280;49747;51.334;6.830;2023-03-03T01:10:44;101796.53;;;8.71;62.15
63731;BME280;49747;51.334;6.830;2023-03-03T01:13:12;101783.16;;;8.74;62.49
63731;BME280;49747;51.334;6.830;2023-03-03T01:15:39;101788.09;;;8.62;62.33
63731;BME280;49747;51.334;6.830;2023-03-03T01:18:06;101788.63;;;8.69;61.93
63731;BME280;49747;51.334;6.830;2023-03-03T01:20:33;101784.38;;;8.67;61.96
63731;BME280;49747;51.334;6.830;2023-03-03T01:22:59;101795.31;;;8.78;62.29
63731;BME280;49747;51.334;6.830;2023-03-03T01:25:26;101797.75;;;8.82;61.98
63731;BME280;49747;51.334;6.830;2023-03-03T01:27:53;101784.63;;;8.79;62.35
63731;BME280;49747;51.334;6.830;2023-03-03T01:30:19;101785.41;;;8.81;62.26
63731;BME280;49747;51.334;6.830;2023-03-03T01:32:46;101789.63;;;8.85;62.24
63731;BME280;49747;51.334;6.830;2023-03-03T01:35:13;101790.69;;;8.81;61.77
63731;BME280;49747;51.334;6.830;2023-03-03T01:37:39;101783.63;;;8.82;61.60
63731;BME280;49747;51.334;6.830;2023-03-03T01:40:12;101797.44;;;8.88;61.06
63731;BME280;49747;51.334;6.830;2023-03-03T01:42:38;101794.00;;;8.86;61.79
63731;BME280;49747;51.334;6.830;2023-03-03T01:45:18;101796.50;;;8.89;62.21
63731;BME280;49747;51.334;6.830;2023-03-03T01:47:48;101798.38;;;8.87;61.67
63731;BME280;49747;51.334;6.830;2023-03-03T01:53:11;101786.56;;;8.76;61.10
63731;BME280;49747;51.334;6.830;2023-03-03T01:55:40;101804.25;;;8.75;60.82
63731;BME280;49747;51.334;6.830;2023-03-03T01:58:16;101790.69;;;8.81;60.91
63731;BME280;49747;51.334;6.830;2023-03-03T02:00:45;101791.09;;;8.74;60.94
63731;BME280;49747;51.334;6.830;2023-03-03T02:03:17;101798.09;;;8.75;60.69
63731;BME280;49747;51.334;6.830;2023-03-03T02:05:45;101783.06;;;8.75;60.85
63731;BME280;49747;51.334;6.830;2023-03-03T02:08:15;101796.00;;;8.81;60.54
63731;BME280;49747;51.334;6.830;2023-03-03T02:10:44;101786.19;;;8.83;60.94
63731;BME280;49747;51.334;6.830;2023-03-03T02:13:11;101793.06;;;8.87;61.58
63731;BME280;49747;51.334;6.830;2023-03-03T02:15:39;101785.97;;;8.88;60.96
63731;BME280;49747;51.334;6.830;2023-03-03T02:18:12;101784.31;;;8.85;60.80
63731;BME280;49747;51.334;6.830;2023-03-03T02:24:17;101789.69;;;9.03;60.50
63731;BME280;49747;51.334;6.830;2023-03-03T02:26:48;101783.59;;;9.01;60.36
63731;BME280;49747;51.334;6.830;2023-03-03T02:29:14;101793.03;;;9.06;60.26
63731;BME280;49747;51.334;6.830;2023-03-03T02:31:41;101786.72;;;9.09;59.90
63731;BME280;49747;51.334;6.830;2023-03-03T02:34:08;101790.31;;;9.08;60.01
63731;BME280;49747;51.334;6.830;2023-03-03T02:36:36;101792.00;;;9.09;60.72
63731;BME280;49747;51.334;6.830;2023-03-03T02:39:17;101788.38;;;9.11;60.05
63731;BME280;49747;51.334;6.830;2023-03-03T02:42:39;101783.63;;;9.18;60.25
63731;BME280;49747;51.334;6.830;2023-03-03T02:44:50;101785.97;;;9.24;59.84
63731;BME280;49747;51.334;6.830;2023-03-03T02:47:17;101788.94;;;9.18;60.51
63731;BME280;49747;51.334;6.830;2023-03-03T02:49:43;101789.00;;;9.17;60.29
63731;BME280;49747;51.334;6.830;2023-03-03T02:52:11;101799.16;;;9.26;60.00
63731;BME280;49747;51.334;6.830;2023-03-03T02:54:40;101798.44;;;9.22;60.22
63731;BME280;49747;51.334;6.830;2023-03-03T02:57:06;101805.31;;;9.26;60.53
63731;BME280;49747;51.334;6.830;2023-03-03T02:59:34;101802.09;;;9.20;60.05
63731;BME280;49747;51.334;6.830;2023-03-03T03:02:07;101805.59;;;9.20;60.09
63731;BME280;49747;51.334;6.830;2023-03-03T03:04:34;101804.66;;;9.21;60.37
63731;BME280;49747;51.334;6.830;2023-03-03T03:07:00;101806.69;;;9.16;60.47
63731;BME280;49747;51.334;6.830;2023-03-03T03:09:29;101804.75;;;9.20;60.06
63731;BME280;49747;51.334;6.830;2023-03-03T03:11:56;101802.91;;;9.22;59.96
63731;BME280;49747;51.334;6.830;2023-03-03T03:14:24;101824.78;;;9.25;59.97
63731;BME280;49747;51.334;6.830;2023-03-03T03:16:53;101824.31;;;9.17;60.16
63731;BME280;49747;51.334;6.830;2023-03-03T03:19:19;101824.47;;;9.14;59.93
63731;BME280;49747;51.334;6.830;2023-03-03T03:21:46;101819.25;;;9.12;59.61
63731;BME280;49747;51.334;6.830;2023-03-03T03:24:13;101818.75;;;9.04;59.42
63731;BME280;49747;51.334;6.830;2023-03-03T03:26:44;101823.44;;;8.99;59.84
63731;BME280;49747;51.334;6.830;2023-03-03T03:29:12;101818.97;;;9.00;59.45
63731;BME280;49747;51.334;6.830;2023-03-03T03:31:38;101829.50;;;9.01;59.69
63731;BME280;49747;51.334;6.830;2023-03-03T03:34:04;101831.34;;;8.82;60.23
63731;BME280;49747;51.334;6.830;2023-03-03T03:36:32;101822.00;;;8.73;60.14
63731;BME280;49747;51.334;6.830;2023-03-03T03:38:59;101821.81;;;8.78;60.30
63731;BME280;49747;51.334;6.830;2023-03-03T03:41:28;101824.38;;;8.79;60.24
63731;BME280;49747;51.334;6.830;2023-03-03T03:43:54;101827.97;;;8.78;60.50
63731;BME280;49747;51.334;6.830;2023-03-03T03:46:21;101837.63;;;8.79;60.50
63731;BME280;49747;51.334;6.830;2023-03-03T03:48:48;101832.03;;;8.85;60.40
63731;BME280;49747;51.334;6.830;2023-03-03T03:51:17;101828.50;;;8.85;60.09
63731;BME280;49747;51.334;6.830;2023-03-03T03:53:44;101821.59;;;8.82;59.65
63731;BME280;49747;51.334;6.830;2023-03-03T03:56:10;101820.56;;;8.85;60.30
63731;BME280;49747;51.334;6.830;2023-03-03T03:58:40;101821.59;;;8.82;60.47
63731;BME280;49747;51.334;6.830;2023-03-03T04:01:08;101819.72;;;8.84;60.42
63731;BME280;49747;51.334;6.830;2023-03-03T04:03:40;101813.63;;;8.82;60.16
63731;BME280;49747;51.334;6.830;2023-03-03T04:06:10;101812.69;;;8.83;60.85
63731;BME280;49747;51.334;6.830;2023-03-03T04:08:37;101823.31;;;8.83;60.66
63731;BME280;49747;51.334;6.830;2023-03-03T04:11:03;101835.38;;;8.89;60.35
63731;BME280;49747;51.334;6.830;2023-03-03T04:13:30;101838.75;;;8.93;60.02
63731;BME280;49747;51.334;6.830;2023-03-03T04:16:01;101823.88;;;8.90;60.39
63731;BME280;49747;51.334;6.830;2023-03-03T04:18:28;101843.78;;;8.99;60.90
63731;BME280;49747;51.334;6.830;2023-03-03T04:20:55;101842.97;;;8.97;60.44
63731;BME280;49747;51.334;6.830;2023-03-03T04:23:23;101843.41;;;9.06;60.37
63731;BME280;49747;51.334;6.830;2023-03-03T04:25:50;101842.56;;;9.06;60.66
63731;BME280;49747;51.334;6.830;2023-03-03T04:28:17;101844.13;;;9.10;59.89
63731;BME280;49747;51.334;6.830;2023-03-03T04:30:45;101837.31;;;9.04;60.33
63731;BME280;49747;51.334;6.830;2023-03-03T04:33:14;101833.66;;;9.07;59.56
63731;BME280;49747;51.334;6.830;2023-03-03T04:35:41;101828.03;;;9.13;60.04
63731;BME280;49747;51.334;6.830;2023-03-03T04:38:07;101822.25;;;9.05;59.58
63731;BME280;49747;51.334;6.830;2023-03-03T04:40:34;101837.03;;;9.10;59.34
63731;BME280;49747;51.334;6.830;2023-03-03T04:43:02;101834.50;;;9.07;59.55
63731;BME280;49747;51.334;6.830;2023-03-03T04:45:29;101834.38;;;9.10;59.50
63731;BME280;49747;51.334;6.830;2023-03-03T04:47:56;101832.72;;;9.08;58.99
63731;BME280;49747;51.334;6.830;2023-03-03T04:50:22;101838.66;;;9.13;60.32
63731;BME280;49747;51.334;6.830;2023-03-03T04:52:49;101847.41;;;9.15;59.54
63731;BME280;49747;51.334;6.830;2023-03-03T04:55:16;101842.00;;;9.17;59.88
63731;BME280;49747;51.334;6.830;2023-03-03T04:57:45;101845.69;;;9.14;60.47
63731;BME280;49747;51.334;6.830;2023-03-03T05:00:12;101846.91;;;9.07;59.18
63731;BME280;49747;51.334;6.830;2023-03-03T05:02:40;101846.78;;;9.10;60.59
63731;BME280;49747;51.334;6.830;2023-03-03T05:05:07;101845.75;;;9.12;59.64
63731;BME280;49747;51.334;6.830;2023-03-03T05:07:35;101850.28;;;9.10;59.35
63731;BME280;49747;51.334;6.830;2023-03-03T05:10:02;101856.44;;;9.11;58.62
63731;BME280;49747;51.334;6.830;2023-03-03T05:12:28;101857.06;;;9.16;58.81
63731;BME280;49747;51.334;6.830;2023-03-03T05:14:54;101848.97;;;9.19;58.99
63731;BME280;49747;51.334;6.830;2023-03-03T05:17:21;101849.81;;;9.20;58.67
63731;BME280;49747;51.334;6.830;2023-03-03T05:19:47;101848.75;;;9.24;58.33
63731;BME280;49747;51.334;6.830;2023-03-03T05:22:14;101844.59;;;9.18;58.43
63731;BME280;49747;51.334;6.830;2023-03-03T05:24:40;101855.03;;;9.21;58.28
63731;BME280;49747;51.334;6.830;2023-03-03T05:27:08;101842.72;;;9.20;58.25
63731;BME280;49747;51.334;6.830;2023-03-03T05:29:34;101848.88;;;9.21;58.79
63731;BME280;49747;51.334;6.830;2023-03-03T05:32:01;101843.03;;;9.14;58.65
63731;BME280;49747;51.334;6.830;2023-03-03T05:34:27;101848.03;;;9.20;58.05
63731;BME280;49747;51.334;6.830;2023-03-03T05:36:54;101852.00;;;9.11;57.52
63731;BME280;49747;51.334;6.830;2023-03-03T05:39:20;101850.91;;;9.16;57.66
63731;BME280;49747;51.334;6.830;2023-03-03T05:41:46;101857.88;;;9.18;57.95
63731;BME280;49747;51.334;6.830;2023-03-03T05:44:13;101865.97;;;9.15;57.95
63731;BME280;49747;51.334;6.830;2023-03-03T05:46:39;101861.75;;;9.11;58.60
63731;BME280;49747;51.334;6.830;2023-03-03T05:49:07;101849.97;;;9.17;57.97
63731;BME280;49747;51.334;6.830;2023-03-03T05:51:34;101849.47;;;9.08;58.02
63731;BME280;49747;51.334;6.830;2023-03-03T05:54:00;101857.06;;;9.16;57.90
63731;BME280;49747;51.334;6.830;2023-03-03T05:56:27;101864.06;;;9.17;57.46
63731;BME280;49747;51.334;6.830;2023-03-03T05:58:53;101861.66;;;9.12;57.57
63731;BME280;49747;51.334;6.830;2023-03-03T06:01:20;101863.38;;;9.13;57.01
63731;BME280;49747;51.334;6.830;2023-03-03T06:03:47;101868.63;;;9.15;56.77
63731;BME280;49747;51.334;6.830;2023-03-03T06:06:13;101875.00;;;9.11;57.42
63731;BME280;49747;51.334;6.830;2023-03-03T06:08:42;101880.16;;;9.14;57.35
63731;BME280;49747;51.334;6.830;2023-03-03T06:11:08;101874.84;;;9.14;57.22
63731;BME280;49747;51.334;6.830;2023-03-03T06:13:35;101888.16;;;9.12;56.87
63731;BME280;49747;51.334;6.830;2023-03-03T06:16:02;101887.16;;;9.15;57.31
63731;BME280;49747;51.334;6.830;2023-03-03T06:18:28;101876.72;;;9.12;57.06
63731;BME280;49747;51.334;6.830;2023-03-03T06:20:54;101883.94;;;8.31;59.10
63731;BME280;49747;51.334;6.830;2023-03-03T06:23:21;101887.44;;;7.49;62.54
63731;BME280;49747;51.334;6.830;2023-03-03T06:25:47;101907.06;;;7.21;64.08
63731;BME280;49747;51.334;6.830;2023-03-03T06:28:14;101905.47;;;6.70;65.52
63731;BME280;49747;51.334;6.830;2023-03-03T06:30:41;101907.56;;;6.85;65.94
63731;BME280;49747;51.334;6.830;2023-03-03T06:33:07;101912.25;;;6.54;66.86
63731;BME280;49747;51.334;6.830;2023-03-03T06:35:33;101907.16;;;6.73;66.66
63731;BME280;49747;51.334;6.830;2023-03-03T06:38:00;101918.25;;;6.34;67.78
63731;BME280;49747;51.334;6.830;2023-03-03T06:40:27;101921.84;;;6.06;69.05
63731;BME280;49747;51.334;6.830;2023-03-03T06:42:53;101923.69;;;6.04;69.35
63731;BME280;49747;51.334;6.830;2023-03-03T06:45:19;101927.69;;;6.16;69.09
63731;BME280;49747;51.334;6.830;2023-03-03T06:47:46;101934.44;;;5.72;70.27
63731;BME280;49747;51.334;6.830;2023-03-03T06:50:17;101935.38;;;5.69;71.14
63731;BME280;49747;51.334;6.830;2023-03-03T06:52:44;101937.22;;;5.67;71.13
63731;BME280;49747;51.334;6.830;2023-03-03T06:55:19;101933.22;;;5.27;72.32
63731;BME280;49747;51.334;6.830;2023-03-03T06:57:47;101930.56;;;5.27;72.97
63731;BME280;49747;51.334;6.830;2023-03-03T07:02:41;101932.69;;;5.14;73.18
63731;BME280;49747;51.334;6.830;2023-03-03T07:05:14;101935.38;;;5.13;73.84
63731;BME280;49747;51.334;6.830;2023-03-03T07:07:42;101944.31;;;4.79;74.76
63731;BME280;49747;51.334;6.830;2023-03-03T07:10:28;101939.09;;;5.07;74.80
63731;BME280;49747;51.334;6.830;2023-03-03T07:13:33;101946.25;;;5.30;73.06
63731;BME280;49747;51.334;6.830;2023-03-03T07:16:00;101945.25;;;5.34;72.54
63731;BME280;49747;51.334;6.830;2023-03-03T07:18:43;101947.06;;;5.04;74.28
63731;BME280;49747;51.334;6.830;2023-03-03T07:23:43;101939.41;;;5.25;73.38
63731;BME280;49747;51.334;6.830;2023-03-03T07:26:12;101949.41;;;5.43;72.80
63731;BME280;49747;51.334;6.830;2023-03-03T07:28:41;101954.16;;;5.30;73.34
63731;BME280;49747;51.334;6.830;2023-03-03T07:34:14;101955.47;;;5.45;72.47
63731;BME280;49747;51.334;6.830;2023-03-03T07:36:42;101958.97;;;5.46;72.24
63731;BME280;49747;51.334;6.830;2023-03-03T07:39:29;101959.50;;;5.57;72.74
63731;BME280;49747;51.334;6.830;2023-03-03T07:44:39;101971.75;;;5.58;72.21
63731;BME280;49747;51.334;6.830;2023-03-03T07:47:24;101962.91;;;5.32;72.45
63731;BME280;49747;51.334;6.830;2023-03-03T07:49:53;101972.63;;;5.58;71.93
63731;BME280;49747;51.334;6.830;2023-03-03T07:52:35;101978.56;;;5.65;71.49
63731;BME280;49747;51.334;6.830;2023-03-03T07:55:24;101977.25;;;5.52;72.60
63731;BME280;49747;51.334;6.830;2023-03-03T07:57:53;101980.97;;;5.44;72.86
63731;BME280;49747;51.334;6.830;2023-03-03T08:02:57;101988.34;;;5.33;72.37
63731;BME280;49747;51.334;6.830;2023-03-03T08:05:39;101995.03;;;5.15;73.64
63731;BME280;49747;51.334;6.830;2023-03-03T08:08:29;101993.69;;;5.30;73.28
63731;BME280;49747;51.334;6.830;2023-03-03T08:10:58;101992.34;;;5.47;72.62
63731;BME280;49747;51.334;6.830;2023-03-03T08:16:01;101996.09;;;5.66;71.56
63731;BME280;49747;51.334;6.830;2023-03-03T08:18:34;101999.44;;;5.44;72.34
63731;BME280;49747;51.334;6.830;2023-03-03T08:21:05;102005.03;;;5.62;71.74
63731;BME280;49747;51.334;6.830;2023-03-03T08:23:34;102005.63;;;5.43;72.78
63731;BME280;49747;51.334;6.830;2023-03-03T08:26:00;102011.44;;;5.53;72.24
63731;BME280;49747;51.334;6.830;2023-03-03T08:28:26;102012.28;;;5.55;71.83
63731;BME280;49747;51.334;6.830;2023-03-03T08:30:53;102011.44;;;5.55;71.58
63731;BME280;49747;51.334;6.830;2023-03-03T08:33:39;102011.13;;;5.34;72.85
63731;BME280;49747;51.334;6.830;2023-03-03T08:36:06;102023.16;;;5.44;72.30
63731;BME280;49747;51.334;6.830;2023-03-03T08:38:36;102023.22;;;5.41;72.68
63731;BME280;49747;51.334;6.830;2023-03-03T08:41:04;102027.97;;;5.60;71.74
63731;BME280;49747;51.334;6.830;2023-03-03T08:43:43;102024.00;;;5.73;71.09
63731;BME280;49747;51.334;6.830;2023-03-03T08:46:10;102032.06;;;5.68;70.88
63731;BME280;49747;51.334;6.830;2023-03-03T08:48:37;102032.50;;;5.55;71.51
63731;BME280;49747;51.334;6.830;2023-03-03T08:51:04;102030.78;;;5.82;70.70
63731;BME280;49747;51.334;6.830;2023-03-03T08:53:31;102029.69;;;5.31;72.94
63731;BME280;49747;51.334;6.830;2023-03-03T08:55:59;102034.69;;;5.40;72.78
63731;BME280;49747;51.334;6.830;2023-03-03T08:58:25;102025.22;;;5.35;72.99
63731;BME280;49747;51.334;6.830;2023-03-03T09:01:01;102036.56;;;5.65;71.79
63731;BME280;49747;51.334;6.830;2023-03-03T09:03:27;102034.16;;;5.57;72.13
63731;BME280;49747;51.334;6.830;2023-03-03T09:05:55;102035.72;;;5.64;71.84
63731;BME280;49747;51.334;6.830;2023-03-03T09:08:21;102036.25;;;5.76;70.97
63731;BME280;49747;51.334;6.830;2023-03-03T09:10:48;102040.38;;;5.56;71.94
63731;BME280;49747;51.334;6.830;2023-03-03T09:13:18;102032.63;;;5.50;72.14
63731;BME280;49747;51.334;6.830;2023-03-03T09:15:45;102042.84;;;5.61;71.50
63731;BME280;49747;51.334;6.830;2023-03-03T09:18:28;102039.41;;;5.59;72.26
63731;BME280;49747;51.334;6.830;2023-03-03T09:20:56;102035.47;;;5.72;71.44
63731;BME280;49747;51.334;6.830;2023-03-03T09:23:33;102051.28;;;5.44;72.13
63731;BME280;49747;51.334;6.830;2023-03-03T09:28:36;102053.03;;;5.73;71.49
63731;BME280;49747;51.334;6.830;2023-03-03T09:31:03;102057.81;;;5.31;73.05
63731;BME280;49747;51.334;6.830;2023-03-03T09:33:44;102055.03;;;5.65;71.92
63731;BME280;49747;51.334;6.830;2023-03-03T09:38:43;102060.91;;;5.75;71.98
63731;BME280;49747;51.334;6.830;2023-03-03T09:44:12;102049.13;;;5.57;71.81
63731;BME280;49747;51.334;6.830;2023-03-03T09:47:11;102063.94;;;5.61;71.91
63731;BME280;49747;51.334;6.830;2023-03-03T10:01:42;102071.41;;;5.76;71.77
63731;BME280;49747;51.334;6.830;2023-03-03T10:07:09;102080.41;;;5.99;70.85
63731;BME280;49747;51.334;6.830;2023-03-03T10:18:01;102081.56;;;5.88;71.45
63731;BME280;49747;51.334;6.830;2023-03-03T10:26:20;102078.97;;;5.87;71.51
63731;BME280;49747;51.334;6.830;2023-03-03T10:29:28;102077.22;;;5.86;71.58
63731;BME280;49747;51.334;6.830;2023-03-03T10:32:25;102068.22;;;5.95;70.81
63731;BME280;49747;51.334;6.830;2023-03-03T10:35:03;102073.88;;;6.10;70.39
63731;BME280;49747;51.334;6.830;2023-03-03T10:38:14;102083.78;;;6.02;70.92
63731;BME280;49747;51.334;6.830;2023-03-03T10:40:53;102084.78;;;6.26;70.05
63731;BME280;49747;51.334;6.830;2023-03-03T10:46:14;102075.34;;;8.96;100.00
63731;BME280;49747;51.334;6.830;2023-03-03T10:57:33;102083.56;;;7.13;68.84
63731;BME280;49747;51.334;6.830;2023-03-03T11:00:15;102085.88;;;6.72;68.75
63731;BME280;49747;51.334;6.830;2023-03-03T11:05:54;102071.16;;;6.65;70.15
63731;BME280;49747;51.334;6.830;2023-03-03T11:11:40;102075.22;;;6.75;69.52
63731;BME280;49747;51.334;6.830;2023-03-03T11:14:23;102082.81;;;6.84;68.33
63731;BME280;49747;51.334;6.830;2023-03-03T11:17:29;102084.69;;;6.81;68.75
63731;BME280;49747;51.334;6.830;2023-03-03T11:20:23;102076.94;;;6.76;69.00
63731;BME280;49747;51.334;6.830;2023-03-03T11:25:34;102075.91;;;6.29;71.00
63731;BME280;49747;51.334;6.830;2023-03-03T11:30:55;102067.81;;;6.60;70.55
63731;BME280;49747;51.334;6.830;2023-03-03T11:33:51;102077.00;;;6.75;70.32
63731;BME280;49747;51.334;6.830;2023-03-03T11:39:33;102061.84;;;6.55;69.93
63731;BME280;49747;51.334;6.830;2023-03-03T11:42:34;102065.50;;;6.51;70.29
63731;BME280;49747;51.334;6.830;2023-03-03T11:45:18;102063.03;;;6.71;69.46
63731;BME280;49747;51.334;6.830;2023-03-03T11:51:01;102063.56;;;6.81;68.19
63731;BME280;49747;51.334;6.830;2023-03-03T11:53:39;102060.31;;;6.98;67.78
63731;BME280;49747;51.334;6.830;2023-03-03T11:56:27;102058.72;;;6.94;67.64
63731;BME280;49747;51.334;6.830;2023-03-03T11:59:34;102052.56;;;6.93;68.11
63731;BME280;49747;51.334;6.830;2023-03-03T12:04:55;102052.53;;;6.95;68.12
63731;BME280;49747;51.334;6.830;2023-03-03T12:13:03;102041.34;;;7.11;66.49
63731;BME280;49747;51.334;6.830;2023-03-03T12:15:39;102043.53;;;7.24;66.23
63731;BME280;49747;51.334;6.830;2023-03-03T12:20:58;102028.50;;;7.01;66.58
63731;BME280;49747;51.334;6.830;2023-03-03T12:26:19;102040.91;;;7.46;65.17
63731;BME280;49747;51.334;6.830;2023-03-03T12:28:54;102036.34;;;7.51;64.49
63731;BME280;49747;51.334;6.830;2023-03-03T12:31:49;102035.78;;;7.64;64.50
63731;BME280;49747;51.334;6.830;2023-03-03T12:34:25;102030.13;;;7.74;63.11
63731;BME280;49747;51.334;6.830;2023-03-03T12:37:19;102032.16;;;7.67;63.53
63731;BME280;49747;51.334;6.830;2023-03-03T12:40:12;102036.59;;;7.67;63.71
63731;BME280;49747;51.334;6.830;2023-03-03T12:45:49;102029.81;;;7.59;63.38
63731;BME280;49747;51.334;6.830;2023-03-03T12:48:43;102024.72;;;7.77;63.16
63731;BME280;49747;51.334;6.830;2023-03-03T12:54:17;102023.38;;;7.88;63.58
63731;BME280;49747;51.334;6.830;2023-03-03T12:56:52;102020.09;;;7.82;64.54
63731;BME280;49747;51.334;6.830;2023-03-03T13:05:08;102019.69;;;7.93;62.92
63731;BME280;49747;51.334;6.830;2023-03-03T13:07:42;102020.72;;;7.88;63.05
63731;BME280;49747;51.334;6.830;2023-03-03T13:10:19;102026.81;;;7.69;63.46
63731;BME280;49747;51.334;6.830;2023-03-03T13:15:38;102020.44;;;7.74;63.23
63731;BME280;49747;51.334;6.830;2023-03-03T13:18:50;102026.91;;;7.44;64.42
63731;BME280;49747;51.334;6.830;2023-03-03T13:21:23;102027.44;;;7.75;64.23
63731;BME280;49747;51.334;6.830;2023-03-03T13:26:53;102011.00;;;7.89;64.20
63731;BME280;49747;51.334;6.830;2023-03-03T13:29:26;102023.69;;;7.59;64.71
63731;BME280;49747;51.334;6.830;2023-03-03T13:32:11;102019.84;;;7.44;65.15
63731;BME280;49747;51.334;6.830;2023-03-03T13:34:48;102023.19;;;7.71;64.38
63731;BME280;49747;51.334;6.830;2023-03-03T13:37:21;102023.13;;;7.73;64.67
63731;BME280;49747;51.334;6.830;2023-03-03T13:39:55;102024.72;;;7.55;65.21
63731;BME280;49747;51.334;6.830;2023-03-03T13:42:38;102017.69;;;7.98;62.94
63731;BME280;49747;51.334;6.830;2023-03-03T13:45:32;102018.19;;;8.07;62.25
63731;BME280;49747;51.334;6.830;2023-03-03T13:50:42;102014.19;;;7.97;62.79
63731;BME280;49747;51.334;6.830;2023-03-03T14:02:01;102004.16;;;7.39;65.59
63731;BME280;49747;51.334;6.830;2023-03-03T14:07:30;101989.09;;;7.18;65.13
63731;BME280;49747;51.334;6.830;2023-03-03T14:10:06;102000.41;;;7.45;64.53
63731;BME280;49747;51.334;6.830;2023-03-03T14:13:02;101997.81;;;7.65;64.40
63731;BME280;49747;51.334;6.830;2023-03-03T14:15:32;101992.28;;;7.50;64.03
63731;BME280;49747;51.334;6.830;2023-03-03T14:18:25;101984.13;;;7.56;64.58
63731;BME280;49747;51.334;6.830;2023-03-03T14:20:57;101988.34;;;7.82;63.70
63731;BME280;49747;51.334;6.830;2023-03-03T14:23:50;102000.66;;;7.61;63.70
63731;BME280;49747;51.334;6.830;2023-03-03T14:26:21;101985.09;;;7.53;64.14
63731;BME280;49747;51.334;6.830;2023-03-03T14:28:48;101980.69;;;7.76;63.58
63731;BME280;49747;51.334;6.830;2023-03-03T14:31:28;101980.91;;;7.48;64.30
63731;BME280;49747;51.334;6.830;2023-03-03T14:36:58;101970.72;;;7.82;63.35
63731;BME280;49747;51.334;6.830;2023-03-03T14:39:33;101973.53;;;7.56;64.33
63731;BME280;49747;51.334;6.830;2023-03-03T14:42:02;101963.59;;;7.62;64.17
63731;BME280;49747;51.334;6.830;2023-03-03T14:44:35;101959.03;;;7.66;64.31
63731;BME280;49747;51.334;6.830;2023-03-03T14:47:04;101957.31;;;7.87;64.15
63731;BME280;49747;51.334;6.830;2023-03-03T14:49:38;101961.72;;;7.86;64.17
63731;BME280;49747;51.334;6.830;2023-03-03T14:54:45;101958.78;;;7.94;63.67
63731;BME280;49747;51.334;6.830;2023-03-03T14:57:19;101935.84;;;7.93;63.67
63731;BME280;49747;51.334;6.830;2023-03-03T15:00:26;101945.97;;;7.61;64.83
63731;BME280;49747;51.334;6.830;2023-03-03T15:05:51;101949.44;;;7.63;65.53
63731;BME280;49747;51.334;6.830;2023-03-03T15:08:31;101945.88;;;7.86;64.52
63731;BME280;49747;51.334;6.830;2023-03-03T15:11:19;101936.22;;;8.06;63.67
63731;BME280;49747;51.334;6.830;2023-03-03T15:13:46;101940.25;;;8.14;63.55
63731;BME280;49747;51.334;6.830;2023-03-03T15:21:47;101930.44;;;7.96;64.17
63731;BME280;49747;51.334;6.830;2023-03-03T15:24:29;101937.28;;;8.22;63.44
63731;BME280;49747;51.334;6.830;2023-03-03T15:32:48;101909.16;;;8.40;62.68
63731;BME280;49747;51.334;6.830;2023-03-03T15:35:35;101925.13;;;8.18;63.67
63731;BME280;49747;51.334;6.830;2023-03-03T15:38:21;101912.25;;;8.29;62.67
63731;BME280;49747;51.334;6.830;2023-03-03T15:40:59;101903.09;;;8.38;62.56
63731;BME280;49747;51.334;6.830;2023-03-03T15:46:49;101890.28;;;8.27;62.33
63731;BME280;49747;51.334;6.830;2023-03-03T15:53:00;101907.03;;;8.28;63.01
63731;BME280;49747;51.334;6.830;2023-03-03T15:58:31;101903.78;;;8.42;62.56
63731;BME280;49747;51.334;6.830;2023-03-03T16:03:32;101901.94;;;8.44;62.58
63731;BME280;49747;51.334;6.830;2023-03-03T16:06:10;101889.84;;;8.38;62.76
63731;BME280;49747;51.334;6.830;2023-03-03T16:08:56;101897.31;;;8.08;63.85
63731;BME280;49747;51.334;6.830;2023-03-03T16:11:36;101901.13;;;8.01;63.90
63731;BME280;49747;51.334;6.830;2023-03-03T16:14:53;101899.50;;;7.98;64.50
63731;BME280;49747;51.334;6.830;2023-03-03T16:17:31;101899.97;;;8.08;64.20
63731;BME280;49747;51.334;6.830;2023-03-03T16:23:13;101900.16;;;8.24;63.28